createdAt,value
2017-09-18T00:01:20.944Z,3.12
2017-09-18T00:03:48.414Z,2.35
2017-09-18T00:06:15.866Z,2.65
2017-09-18T00:08:43.323Z,3.03
2017-09-18T00:11:10.794Z,3.00
2017-09-18T00:13:38.242Z,3.10
2017-09-18T00:16:05.706Z,3.00
2017-09-18T00:18:33.150Z,3.00
2017-09-18T00:21:00.611Z,3.15
2017-09-18T00:23:28.064Z,3.25
2017-09-18T00:25:55.517Z,2.80
2017-09-18T00:28:22.972Z,2.90
2017-09-18T00:30:50.409Z,2.70
2017-09-18T00:33:17.885Z,2.70
2017-09-18T00:35:45.324Z,2.60
2017-09-18T00:38:12.769Z,3.00
2017-09-18T00:40:40.217Z,2.80
2017-09-18T00:43:07.670Z,3.00
2017-09-18T00:45:35.884Z,3.00
2017-09-18T00:48:03.342Z,2.90
2017-09-18T00:50:30.789Z,2.80
2017-09-18T00:52:58.233Z,3.05
2017-09-18T00:55:25.685Z,2.50
2017-09-18T00:57:53.137Z,2.72
2017-09-18T01:00:21.360Z,3.10
2017-09-18T01:02:48.808Z,2.85
2017-09-18T01:05:16.257Z,3.15
2017-09-18T01:07:43.701Z,3.35
2017-09-18T01:10:11.174Z,3.08
2017-09-18T01:12:38.668Z,3.08
2017-09-18T01:15:06.148Z,2.83
2017-09-18T01:17:34.354Z,3.03
2017-09-18T01:20:01.827Z,3.12
2017-09-18T01:22:29.271Z,3.35
2017-09-18T01:24:56.718Z,2.97
2017-09-18T01:27:24.166Z,2.80
2017-09-18T01:29:51.631Z,3.00
2017-09-18T01:32:19.106Z,3.30
2017-09-18T01:34:46.550Z,3.33
2017-09-18T01:37:14.034Z,3.00
2017-09-18T01:39:42.233Z,2.60
2017-09-18T01:42:09.688Z,2.92
2017-09-18T01:44:37.149Z,3.05
2017-09-18T01:47:04.595Z,2.87
2017-09-18T01:49:32.049Z,3.40
2017-09-18T01:51:59.525Z,3.28
2017-09-18T01:54:26.990Z,3.25
2017-09-18T01:56:55.215Z,3.15
2017-09-18T01:59:22.666Z,3.50
2017-09-18T02:01:50.121Z,3.80
2017-09-18T02:04:17.570Z,3.10
2017-09-18T02:06:45.009Z,3.17
2017-09-18T02:09:12.485Z,3.30
2017-09-18T02:11:39.909Z,3.20
2017-09-18T02:14:08.136Z,3.20
2017-09-18T02:16:35.581Z,3.80
2017-09-18T02:19:03.035Z,3.22
2017-09-18T02:21:30.490Z,3.60
2017-09-18T02:23:57.946Z,3.20
2017-09-18T02:26:25.390Z,3.20
2017-09-18T02:28:52.854Z,3.10
2017-09-18T02:31:20.315Z,2.62
2017-09-18T02:33:47.765Z,3.00
2017-09-18T02:36:15.214Z,2.60
2017-09-18T02:38:42.666Z,2.72
2017-09-18T02:41:10.891Z,2.80
2017-09-18T02:43:38.347Z,2.80
2017-09-18T02:46:05.810Z,2.90
2017-09-18T02:48:33.266Z,3.00
2017-09-18T02:51:00.726Z,2.83
2017-09-18T02:53:28.182Z,2.78
2017-09-18T02:55:55.637Z,2.80
2017-09-18T02:58:23.081Z,2.83
2017-09-18T03:00:50.524Z,2.47
2017-09-18T03:03:17.970Z,2.85
2017-09-18T03:05:45.438Z,2.60
2017-09-18T03:08:12.903Z,2.62
2017-09-18T03:10:40.351Z,2.35
2017-09-18T03:13:07.793Z,2.58
2017-09-18T03:15:35.245Z,2.70
2017-09-18T03:18:02.693Z,2.90
2017-09-18T03:20:30.906Z,2.22
2017-09-18T03:22:58.385Z,2.65
2017-09-18T03:25:26.641Z,2.20
2017-09-18T03:27:54.116Z,2.50
2017-09-18T03:30:21.551Z,2.35
2017-09-18T03:32:49.000Z,2.50
2017-09-18T03:35:16.441Z,2.12
2017-09-18T03:37:43.889Z,2.30
2017-09-18T03:40:11.342Z,2.20
2017-09-18T03:42:39.558Z,2.20
2017-09-18T03:45:07.042Z,2.42
2017-09-18T03:47:34.509Z,1.90
2017-09-18T03:50:01.966Z,2.35
2017-09-18T03:52:29.424Z,1.98
2017-09-18T03:54:57.650Z,2.67
2017-09-18T03:57:25.102Z,1.73
2017-09-18T03:59:52.553Z,1.87
2017-09-18T04:02:19.997Z,2.10
2017-09-18T04:04:47.453Z,2.10
2017-09-18T04:07:15.665Z,2.22
2017-09-18T04:09:43.115Z,1.92
2017-09-18T04:12:10.566Z,2.00
2017-09-18T04:14:38.029Z,2.20
2017-09-18T04:17:05.483Z,3.00
2017-09-18T04:19:32.950Z,2.30
2017-09-18T04:22:00.402Z,2.90
2017-09-18T04:24:27.874Z,3.00
2017-09-18T04:26:55.345Z,3.05
2017-09-18T04:29:22.801Z,1.90
2017-09-18T04:31:50.315Z,2.35
2017-09-18T04:34:17.766Z,2.20
2017-09-18T04:36:45.213Z,2.10
2017-09-18T04:39:13.438Z,2.50
2017-09-18T04:41:40.905Z,2.00
2017-09-18T04:44:09.134Z,2.95
2017-09-18T04:46:36.604Z,2.78
2017-09-18T04:49:04.110Z,2.20
2017-09-18T04:51:31.562Z,1.85
2017-09-18T04:53:59.016Z,2.60
2017-09-18T04:56:26.469Z,2.50
2017-09-18T04:58:53.913Z,2.05
2017-09-18T05:01:21.358Z,2.10
2017-09-18T05:03:48.811Z,2.12
2017-09-18T05:06:16.262Z,2.10
2017-09-18T05:08:43.726Z,2.25
2017-09-18T05:11:11.165Z,2.40
2017-09-18T05:13:38.617Z,2.00
2017-09-18T05:16:06.062Z,3.15
2017-09-18T05:18:34.285Z,2.72
2017-09-18T05:21:01.725Z,2.20
2017-09-18T05:23:29.199Z,2.90
2017-09-18T05:25:56.645Z,4.20
2017-09-18T05:28:24.098Z,2.28
2017-09-18T05:30:51.565Z,2.30
2017-09-18T05:33:19.009Z,2.83
2017-09-18T05:35:46.461Z,3.22
2017-09-18T05:38:13.909Z,3.45
2017-09-18T05:40:41.365Z,1.95
2017-09-18T05:43:08.842Z,2.33
2017-09-18T05:45:36.277Z,2.20
2017-09-18T05:48:03.737Z,3.78
2017-09-18T05:50:31.188Z,2.50
2017-09-18T05:52:58.646Z,2.40
2017-09-18T05:55:26.117Z,2.90
2017-09-18T05:57:53.565Z,2.10
2017-09-18T06:00:21.009Z,3.62
2017-09-18T06:02:50.046Z,1.80
2017-09-18T06:05:17.494Z,1.70
2017-09-18T06:07:44.957Z,1.95
2017-09-18T06:10:12.421Z,1.58
2017-09-18T06:12:39.873Z,3.47
2017-09-18T06:15:07.322Z,3.47
2017-09-18T06:17:34.778Z,2.65
2017-09-18T06:20:02.231Z,2.50
2017-09-18T06:22:29.701Z,2.00
2017-09-18T06:24:57.159Z,1.52
2017-09-18T06:27:24.606Z,2.80
2017-09-18T06:29:52.092Z,1.95
2017-09-18T06:32:19.544Z,1.20
2017-09-18T06:34:46.989Z,2.95
2017-09-18T06:37:14.441Z,1.42
2017-09-18T06:39:41.897Z,1.40
2017-09-18T06:42:09.348Z,1.62
2017-09-18T06:44:36.800Z,1.20
2017-09-18T06:47:04.258Z,2.10
2017-09-18T06:49:31.707Z,3.95
2017-09-18T06:51:59.171Z,2.50
2017-09-18T06:54:26.623Z,1.40
2017-09-18T06:56:54.088Z,2.65
2017-09-18T06:59:21.541Z,2.00
2017-09-18T07:01:48.981Z,1.70
2017-09-18T07:04:16.440Z,1.40
2017-09-18T07:06:43.905Z,1.20
2017-09-18T07:09:11.354Z,1.58
2017-09-18T07:11:38.822Z,2.20
2017-09-18T07:14:06.277Z,2.70
2017-09-18T07:16:33.744Z,1.30
2017-09-18T07:19:01.203Z,1.05
2017-09-18T07:21:28.655Z,1.30
2017-09-18T07:23:56.166Z,1.40
2017-09-18T07:26:23.617Z,1.92
2017-09-18T07:28:51.084Z,1.90
2017-09-18T07:31:18.550Z,1.20
2017-09-18T07:33:46.766Z,1.58
2017-09-18T07:36:14.222Z,1.23
2017-09-18T07:38:41.687Z,1.92
2017-09-18T07:41:09.140Z,1.70
2017-09-18T07:43:36.598Z,1.02
2017-09-18T07:46:04.058Z,1.90
2017-09-18T07:48:31.513Z,0.90
2017-09-18T07:50:58.976Z,1.10
2017-09-18T07:53:26.437Z,3.00
2017-09-18T07:55:53.899Z,4.10
2017-09-18T07:58:21.364Z,1.80
2017-09-18T08:00:49.626Z,2.12
2017-09-18T08:03:17.096Z,3.03
2017-09-18T08:05:44.564Z,1.95
2017-09-18T08:08:12.038Z,1.12
2017-09-18T08:10:40.269Z,2.55
2017-09-18T08:13:07.733Z,1.12
2017-09-18T08:15:35.199Z,1.80
2017-09-18T08:18:02.665Z,1.33
2017-09-18T08:20:30.144Z,1.10
2017-09-18T08:22:57.616Z,1.10
2017-09-18T08:25:25.825Z,1.95
2017-09-18T08:27:53.297Z,4.03
2017-09-18T08:30:20.759Z,1.40
2017-09-18T08:32:48.305Z,2.08
2017-09-18T08:35:15.766Z,1.62
2017-09-18T08:37:43.228Z,1.30
2017-09-18T08:40:10.685Z,1.00
2017-09-18T08:42:38.145Z,1.17
2017-09-18T08:45:05.609Z,0.98
2017-09-18T08:47:33.082Z,1.40
2017-09-18T08:50:00.529Z,1.70
2017-09-18T08:52:27.997Z,2.65
2017-09-18T08:54:55.468Z,1.30
2017-09-18T08:57:22.928Z,1.10
2017-09-18T08:59:51.149Z,1.30
2017-09-18T09:02:18.619Z,1.25
2017-09-18T09:04:46.074Z,1.10
2017-09-18T09:07:13.537Z,1.23
2017-09-18T09:09:40.997Z,1.10
2017-09-18T09:12:08.457Z,1.55
2017-09-18T09:14:35.912Z,1.07
2017-09-18T09:17:03.389Z,1.12
2017-09-18T09:19:30.849Z,1.20
2017-09-18T09:21:58.326Z,1.00
2017-09-18T09:24:26.545Z,1.30
2017-09-18T09:26:54.019Z,1.10
2017-09-18T09:29:21.477Z,1.20
2017-09-18T09:31:48.933Z,1.10
2017-09-18T09:34:16.400Z,1.00
2017-09-18T09:36:43.846Z,1.27
2017-09-18T09:39:11.302Z,1.10
2017-09-18T09:41:38.749Z,1.20
2017-09-18T09:44:06.206Z,1.30
2017-09-18T09:46:33.657Z,1.10
2017-09-18T09:49:01.116Z,1.10
2017-09-18T09:51:28.566Z,1.10
2017-09-18T09:53:56.022Z,1.10
2017-09-18T09:56:23.469Z,1.17
2017-09-18T09:58:50.921Z,1.10
2017-09-18T10:01:18.377Z,1.17
2017-09-18T10:03:45.838Z,1.17
2017-09-18T10:06:13.288Z,1.10
2017-09-18T10:08:40.752Z,1.27
2017-09-18T10:11:08.205Z,1.30
2017-09-18T10:13:35.670Z,1.80
2017-09-18T10:16:03.142Z,1.08
2017-09-18T10:18:30.597Z,1.10
2017-09-18T10:20:58.054Z,1.30
2017-09-18T10:23:25.512Z,1.30
2017-09-18T10:25:52.963Z,1.30
2017-09-18T10:28:20.422Z,1.50
2017-09-18T10:30:47.880Z,1.00
2017-09-18T10:33:15.329Z,0.95
2017-09-18T10:35:42.781Z,1.15
2017-09-18T10:38:10.249Z,1.10
2017-09-18T10:40:37.704Z,0.90
2017-09-18T10:43:05.177Z,1.30
2017-09-18T10:45:32.626Z,1.15
2017-09-18T10:48:00.089Z,1.50
2017-09-18T10:50:27.549Z,1.08
2017-09-18T10:52:55.018Z,1.40
2017-09-18T10:55:22.473Z,1.10
2017-09-18T10:57:49.939Z,1.48
2017-09-18T11:00:17.403Z,1.35
2017-09-18T11:02:44.861Z,1.20
2017-09-18T11:05:12.333Z,1.08
2017-09-18T11:07:39.796Z,1.20
2017-09-18T11:10:08.025Z,1.10
2017-09-18T11:12:35.493Z,1.17
2017-09-18T11:15:02.961Z,1.10
2017-09-18T11:17:30.414Z,0.97
2017-09-18T11:19:57.883Z,1.10
2017-09-18T11:22:25.350Z,0.95
2017-09-18T11:24:52.821Z,0.90
2017-09-18T11:27:21.044Z,1.17
2017-09-18T11:29:48.514Z,1.17
2017-09-18T11:32:15.965Z,1.00
2017-09-18T11:34:43.421Z,0.90
2017-09-18T11:37:10.896Z,1.10
2017-09-18T11:39:38.367Z,0.93
2017-09-18T11:42:05.825Z,0.93
2017-09-18T11:44:33.294Z,1.30
2017-09-18T11:47:01.526Z,0.95
2017-09-18T11:49:28.990Z,1.00
2017-09-18T11:51:56.437Z,1.00
2017-09-18T11:54:23.919Z,1.10
2017-09-18T11:56:51.378Z,0.80
2017-09-18T11:59:18.840Z,0.90
2017-09-18T12:01:46.370Z,1.10
2017-09-18T12:04:13.817Z,1.00
2017-09-18T12:06:41.271Z,1.48
2017-09-18T12:09:08.726Z,1.10
2017-09-18T12:11:36.177Z,1.15
2017-09-18T12:14:03.649Z,1.10
2017-09-18T12:16:31.104Z,1.40
2017-09-18T12:18:58.557Z,1.12
2017-09-18T12:21:26.038Z,1.00
2017-09-18T12:23:53.517Z,1.17
2017-09-18T12:26:20.972Z,1.62
2017-09-18T12:28:48.441Z,1.10
2017-09-18T12:31:16.665Z,1.20
2017-09-18T12:33:44.129Z,1.30
2017-09-18T12:36:11.625Z,1.10
2017-09-18T12:38:39.090Z,0.93
2017-09-18T12:41:07.310Z,1.10
2017-09-18T12:43:34.801Z,1.10
2017-09-18T12:46:02.257Z,1.10
2017-09-18T12:48:29.729Z,1.10
2017-09-18T12:50:57.209Z,1.10
2017-09-18T12:53:25.438Z,1.15
2017-09-18T12:55:52.904Z,2.08
2017-09-18T12:58:20.361Z,1.40
2017-09-18T13:00:47.850Z,1.10
2017-09-18T13:03:16.067Z,1.20
2017-09-18T13:05:43.530Z,1.00
2017-09-18T13:08:10.986Z,1.00
2017-09-18T13:10:38.445Z,1.12
2017-09-18T13:13:05.897Z,1.10
2017-09-18T13:15:33.375Z,1.00
2017-09-18T13:18:00.833Z,1.05
2017-09-18T13:20:28.280Z,1.20
2017-09-18T13:22:55.740Z,1.10
2017-09-18T13:25:23.209Z,1.30
2017-09-18T13:27:50.673Z,1.17
2017-09-18T13:30:18.128Z,1.17
2017-09-18T13:32:45.607Z,1.10
2017-09-18T13:35:13.061Z,1.20
2017-09-18T13:37:41.292Z,1.20
2017-09-18T13:40:08.741Z,1.10
2017-09-18T13:42:36.209Z,1.20
2017-09-18T13:45:03.665Z,1.30
2017-09-18T13:47:31.121Z,1.33
2017-09-18T13:49:58.598Z,1.00
2017-09-18T13:52:26.052Z,1.12
2017-09-18T13:54:53.511Z,1.40
2017-09-18T13:57:20.987Z,1.30
2017-09-18T13:59:48.447Z,1.23
2017-09-18T14:02:15.905Z,1.10
2017-09-18T14:04:43.377Z,1.30
2017-09-18T14:07:11.606Z,1.10
2017-09-18T14:09:39.067Z,0.98
2017-09-18T14:12:06.562Z,1.10
2017-09-18T14:14:34.800Z,1.25
2017-09-18T14:17:02.261Z,1.40
2017-09-18T14:19:29.724Z,1.33
2017-09-18T14:21:57.177Z,1.52
2017-09-18T14:24:24.641Z,1.10
2017-09-18T14:26:52.121Z,0.90
2017-09-18T14:29:19.579Z,1.20
2017-09-18T14:31:47.032Z,1.00
2017-09-18T14:34:14.509Z,1.20
2017-09-18T14:36:41.966Z,1.60
2017-09-18T14:39:09.421Z,1.17
2017-09-18T14:41:37.657Z,1.37
2017-09-18T14:44:05.822Z,1.00
2017-09-18T14:46:33.273Z,1.30
2017-09-18T14:49:00.733Z,1.20
2017-09-18T14:51:28.201Z,1.20
2017-09-18T14:53:55.656Z,1.20
2017-09-18T14:56:23.150Z,1.25
2017-09-18T14:58:51.365Z,1.70
2017-09-18T15:01:18.838Z,1.42
2017-09-18T15:03:46.290Z,1.45
2017-09-18T15:06:13.760Z,1.30
2017-09-18T15:08:41.210Z,1.23
2017-09-18T15:11:08.685Z,1.27
2017-09-18T15:13:36.176Z,0.98
2017-09-18T15:16:04.414Z,1.10
2017-09-18T15:18:31.888Z,1.20
2017-09-18T15:20:59.345Z,1.15
2017-09-18T15:23:26.808Z,1.58
2017-09-18T15:25:54.261Z,1.50
2017-09-18T15:28:21.721Z,1.30
2017-09-18T15:30:49.175Z,1.10
2017-09-18T15:33:16.641Z,1.33
2017-09-18T15:35:44.089Z,1.52
2017-09-18T15:38:11.552Z,1.35
2017-09-18T15:40:39.003Z,1.20
2017-09-18T15:43:06.491Z,1.52
2017-09-18T15:45:34.707Z,1.55
2017-09-18T15:48:02.203Z,1.37
2017-09-18T15:50:29.644Z,1.50
2017-09-18T15:52:57.113Z,1.62
2017-09-18T15:55:24.584Z,1.23
2017-09-18T15:57:52.807Z,1.37
2017-09-18T16:00:20.269Z,1.87
2017-09-18T16:02:47.718Z,1.70
2017-09-18T16:05:15.189Z,1.30
2017-09-18T16:07:42.762Z,1.60
2017-09-18T16:10:10.228Z,1.30
2017-09-18T16:12:37.683Z,1.30
2017-09-18T16:15:05.138Z,1.98
2017-09-18T16:17:32.588Z,1.67
2017-09-18T16:20:00.050Z,1.45
2017-09-18T16:22:27.513Z,1.20
2017-09-18T16:24:54.969Z,1.50
2017-09-18T16:27:22.713Z,1.50
2017-09-18T16:29:50.189Z,1.25
2017-09-18T16:32:17.645Z,1.60
2017-09-18T16:34:45.129Z,1.60
2017-09-18T16:37:13.349Z,1.30
2017-09-18T16:39:40.795Z,1.83
2017-09-18T16:42:08.253Z,1.98
2017-09-18T16:44:35.730Z,1.58
2017-09-18T16:47:03.182Z,1.48
2017-09-18T16:49:30.681Z,1.80
2017-09-18T16:51:58.138Z,2.05
2017-09-18T16:54:26.360Z,2.10
2017-09-18T16:56:53.824Z,1.70
2017-09-18T16:59:21.285Z,1.67
2017-09-18T17:01:48.766Z,1.42
2017-09-18T17:04:16.237Z,2.12
2017-09-18T17:06:43.721Z,1.30
2017-09-18T17:09:11.942Z,1.73
2017-09-18T17:11:51.694Z,1.80
2017-09-18T17:14:19.474Z,1.67
2017-09-18T17:16:46.930Z,1.75
2017-09-18T17:19:14.409Z,1.58
2017-09-18T17:21:42.627Z,1.90
2017-09-18T17:24:10.087Z,2.10
2017-09-18T17:26:37.537Z,1.80
2017-09-18T17:29:05.001Z,2.30
2017-09-18T17:31:32.525Z,2.28
2017-09-18T17:34:00.736Z,2.78
2017-09-18T17:36:28.242Z,2.00
2017-09-18T17:38:56.486Z,1.95
2017-09-18T17:41:23.974Z,1.75
2017-09-18T17:43:51.429Z,2.15
2017-09-18T17:46:18.891Z,2.10
2017-09-18T17:48:46.379Z,1.80
2017-09-18T17:51:14.564Z,1.98
2017-09-18T17:53:42.034Z,2.25
2017-09-18T17:56:09.497Z,2.72
2017-09-18T17:58:36.970Z,2.97
2017-09-18T18:01:04.498Z,3.45
2017-09-18T18:03:31.986Z,2.53
2017-09-18T18:05:59.437Z,2.50
2017-09-18T18:08:26.894Z,2.75
2017-09-18T18:10:54.350Z,2.50
2017-09-18T18:13:21.817Z,4.10
2017-09-18T18:15:49.270Z,2.50
2017-09-18T18:18:19.764Z,4.62
2017-09-18T18:20:47.838Z,2.30
2017-09-18T18:23:15.748Z,3.20
2017-09-18T18:28:42.468Z,2.62
2017-09-18T18:31:09.919Z,4.37
2017-09-18T18:33:37.361Z,3.20
2017-09-18T18:36:04.814Z,3.55
2017-09-18T18:38:33.021Z,2.40
2017-09-18T18:41:00.471Z,2.53
2017-09-18T18:43:27.917Z,3.20
2017-09-18T18:45:55.373Z,3.30
2017-09-18T18:48:22.912Z,3.53
2017-09-18T18:50:51.345Z,3.37
2017-09-18T18:53:19.035Z,2.72
2017-09-18T18:55:47.364Z,2.80
2017-09-18T18:58:14.960Z,3.12
2017-09-18T19:00:42.435Z,3.53
2017-09-18T19:03:09.919Z,3.50
2017-09-18T19:05:38.188Z,3.75
2017-09-18T19:08:06.403Z,4.10
2017-09-18T19:10:33.855Z,2.80
2017-09-18T19:13:01.317Z,3.03
2017-09-18T19:15:28.765Z,3.00
2017-09-18T19:17:56.209Z,3.00
2017-09-18T19:20:23.677Z,3.50
2017-09-18T19:22:51.129Z,3.10
2017-09-18T19:25:18.619Z,3.80
2017-09-18T19:27:46.057Z,3.55
2017-09-18T19:30:13.509Z,3.30
2017-09-18T19:32:40.959Z,4.05
2017-09-18T19:35:08.444Z,5.22
2017-09-18T19:37:35.885Z,4.25
2017-09-18T19:40:03.339Z,3.95
2017-09-18T19:42:30.789Z,4.43
2017-09-18T19:44:58.225Z,5.10
2017-09-18T19:47:26.440Z,4.50
2017-09-18T19:49:53.938Z,3.72
2017-09-18T19:52:21.401Z,4.00
2017-09-18T19:54:49.617Z,4.87
2017-09-18T19:57:17.118Z,4.53
2017-09-18T19:59:44.553Z,4.65
2017-09-18T20:02:12.004Z,4.70
2017-09-18T20:04:39.458Z,4.75
2017-09-18T20:07:06.925Z,6.50
2017-09-18T20:09:34.377Z,5.55
2017-09-18T20:12:01.859Z,5.82
2017-09-18T20:14:29.309Z,6.03
2017-09-18T20:16:56.774Z,6.40
2017-09-18T20:19:24.217Z,6.85
2017-09-18T20:21:51.670Z,6.47
2017-09-18T20:24:19.117Z,8.73
2017-09-18T20:26:46.569Z,6.93
2017-09-18T20:29:14.021Z,7.78
2017-09-18T20:31:41.470Z,7.68
2017-09-18T20:34:08.923Z,8.13
2017-09-18T20:36:36.377Z,8.85
2017-09-18T20:39:03.850Z,7.75
2017-09-18T20:41:31.306Z,8.75
2017-09-18T20:43:58.762Z,8.10
2017-09-18T20:46:26.218Z,8.52
2017-09-18T20:48:53.776Z,8.52
2017-09-18T20:51:21.233Z,8.50
2017-09-18T20:53:48.669Z,8.10
2017-09-18T20:56:16.121Z,7.78
2017-09-18T20:58:44.334Z,8.55
2017-09-18T21:01:11.786Z,7.65
2017-09-18T21:03:39.237Z,7.25
2017-09-18T21:06:06.707Z,7.53
2017-09-18T21:08:34.157Z,8.70
2017-09-18T21:11:01.609Z,7.32
2017-09-18T21:13:29.064Z,7.32
2017-09-18T21:15:56.513Z,8.05
2017-09-18T21:18:23.978Z,6.90
2017-09-18T21:20:51.426Z,6.50
2017-09-18T21:23:18.894Z,6.65
2017-09-18T21:25:46.354Z,6.10
2017-09-18T21:28:13.810Z,6.50
2017-09-18T21:30:41.298Z,6.72
2017-09-18T21:33:08.742Z,5.93
2017-09-18T21:35:36.185Z,5.35
2017-09-18T21:38:03.649Z,7.18
2017-09-18T21:40:31.093Z,5.07
2017-09-18T21:42:58.553Z,6.53
2017-09-18T21:45:26.009Z,4.60
2017-09-18T21:47:53.493Z,3.72
2017-09-18T21:50:20.927Z,3.78
2017-09-18T21:52:48.378Z,3.28
2017-09-18T21:55:15.819Z,4.10
2017-09-18T21:57:43.269Z,3.50
2017-09-18T22:00:11.497Z,3.53
2017-09-18T22:02:38.961Z,3.55
2017-09-18T22:05:06.414Z,2.90
2017-09-18T22:07:33.841Z,3.20
2017-09-18T22:10:01.287Z,2.62
2017-09-18T22:12:28.738Z,2.97
2017-09-18T22:14:56.181Z,3.05
2017-09-18T22:17:24.413Z,2.90
2017-09-18T22:19:51.863Z,2.97
2017-09-18T22:22:19.306Z,2.75
2017-09-18T22:24:46.757Z,3.20
2017-09-18T22:27:14.215Z,3.20
2017-09-18T22:29:41.670Z,2.70
2017-09-18T22:32:09.119Z,2.75
2017-09-18T22:34:36.573Z,2.85
2017-09-18T22:37:04.077Z,2.53
2017-09-18T22:39:31.566Z,2.70
2017-09-18T22:41:59.788Z,3.00
2017-09-18T22:44:27.250Z,3.53
2017-09-18T22:46:54.695Z,2.90
2017-09-18T22:49:22.146Z,3.53
2017-09-18T22:51:49.601Z,3.30
2017-09-18T22:54:17.056Z,3.05
2017-09-18T22:56:44.506Z,3.30
2017-09-18T22:59:11.961Z,3.12
2017-09-18T23:01:40.189Z,3.50
2017-09-18T23:04:07.684Z,3.58
2017-09-18T23:06:35.146Z,3.55
2017-09-18T23:09:02.665Z,3.00
2017-09-18T23:11:30.129Z,2.83
2017-09-18T23:13:57.578Z,3.62
2017-09-18T23:16:25.021Z,3.75
2017-09-18T23:18:52.483Z,3.20
2017-09-18T23:21:19.939Z,3.12
2017-09-18T23:23:47.381Z,3.00
2017-09-18T23:26:14.837Z,3.12
2017-09-18T23:28:42.301Z,2.97
2017-09-18T23:31:10.526Z,2.90
2017-09-18T23:33:38.737Z,3.00
2017-09-18T23:36:06.186Z,3.15
2017-09-18T23:38:33.639Z,3.03
2017-09-18T23:41:01.090Z,3.08
2017-09-18T23:43:28.537Z,2.72
2017-09-18T23:45:55.990Z,3.08
2017-09-18T23:48:24.197Z,2.62
2017-09-18T23:50:51.647Z,2.75
2017-09-18T23:53:19.098Z,2.87
2017-09-18T23:55:46.558Z,2.90
2017-09-18T23:58:14.010Z,3.30
